Aeroporto :
LOGIN :

Iscrizione | Disclaimer

   EN    FR    IT 

 










Sommario :    VFR   VFR Marginale   IFR   IFR Intensivo   IFR Molto Intensivo
Visibilità : 
Base nubi : 
>= 8 km
>= 3000ft
5 / 8 km
1000 / 3000 ft
1500m / 5 km
500 / 1000 ft
800 / 1500m
200 / 500 ft
< 800m
< 200 ft
Simboli :   Temporali  Nebbia  Neve Forte  Precipitazioni Forti  Vento > 20 kt
SIGMETs :   Varie  Temporali  Ghiacco  Turbolenza  Onda orograficha  Ceneri Vulcaniche







- Altitudine del aeroporto : 665 ft
- Codice IATA : NOC


EIKN - Connaught / Knock- Ireland West

ULTIMO METAR :
  • 210630Z 19014KT 150V230 9999 SCT008 BKN012 BKN120 12/11 Q1018 NOSIG

METARs OBSOLETI :
  • 210600Z 17012KT 140V210 9999 BKN004 SCT150 BKN300 11/11 Q1018 BECMG 6000 SCT007 BKN012
  • 210500Z 18011KT 150V230 0800 FG OVC002 11/11 Q1018 BECMG 6000 SCT005 BKN012

TAF TAF EIKN
Valido dal 21 a 06 ore il 22 a 06 ore UTC


210500Z 2106/2206 19013KT 9999 SCT002 BKN015
TEMPO 2106/2112 2000 -RADZ BR BKN005
PROB40
TEMPO 2106/2110 0400 FG BKN002
BECMG 2109/2112 19017G28KT
TEMPO 2112/2115 2500 RA BKN005 SCT018CB
PROB30
TEMPO 2112/2115 0500 FG BKN002
BECMG 2115/2118 25010KT 9999 BKN020
BECMG 2119/2122 22008KT
BECMG 2203/2206 19008KT
TEMPO 2203/2206 2000 BR BKN003
Nessun NOTAM noto per questo aeroporto.



MetMap, La meteo Aeronautica in un colpo d'occhio ! - Copyright ORBIFLY Dicembre 2007 - Disclaimer

ORBIFLY MET'MAP TEAM :

Programmazione e sviluppo : Alexandra Zaïnal
Concezione e sviluppo : Baudouin d'Aumeries
Co-Programmazione e sviluppo : Marc-Olivier Méhu
Supporto tecnico e logistico : Manuel Goepfert
Aiuto per la traduzione : Arnaldo La Scala

Contatto : metmap@orbifly.com




FONTI E CREDITI :

   NOAA